sensor_id;sensor_type;location;lat;lon;timestamp;temperature;humidity
67188;DHT22;54117;53.532;49.426;2022-07-19T00:00:21;20.80;99.90
67188;DHT22;54117;53.532;49.426;2022-07-19T00:02:49;20.70;99.90
67188;DHT22;54117;53.532;49.426;2022-07-19T00:05:15;20.70;99.90
67188;DHT22;54117;53.532;49.426;2022-07-19T00:07:42;20.70;99.90
67188;DHT22;54117;53.532;49.426;2022-07-19T00:10:12;20.60;99.90
67188;DHT22;54117;53.532;49.426;2022-07-19T00:12:40;20.60;99.90
67188;DHT22;54117;53.532;49.426;2022-07-19T00:15:09;20.60;99.90
67188;DHT22;54117;53.532;49.426;2022-07-19T00:17:42;20.50;99.90
67188;DHT22;54117;53.532;49.426;2022-07-19T00:20:14;20.50;99.90
67188;DHT22;54117;53.532;49.426;2022-07-19T00:22:41;20.50;99.90
67188;DHT22;54117;53.532;49.426;2022-07-19T00:25:09;20.50;99.90
67188;DHT22;54117;53.532;49.426;2022-07-19T00:27:37;20.50;99.90
67188;DHT22;54117;53.532;49.426;2022-07-19T00:30:10;20.40;99.90
67188;DHT22;54117;53.532;49.426;2022-07-19T00:35:40;20.40;99.90
67188;DHT22;54117;53.532;49.426;2022-07-19T00:38:11;20.30;99.90
67188;DHT22;54117;53.532;49.426;2022-07-19T00:40:39;20.30;99.90
67188;DHT22;54117;53.532;49.426;2022-07-19T00:43:10;20.30;99.90
67188;DHT22;54117;53.532;49.426;2022-07-19T00:45:40;20.30;99.90
67188;DHT22;54117;53.532;49.426;2022-07-19T00:48:11;20.30;99.90
67188;DHT22;54117;53.532;49.426;2022-07-19T00:53:41;20.30;99.90
67188;DHT22;54117;53.532;49.426;2022-07-19T00:58:57;20.30;99.90
67188;DHT22;54117;53.532;49.426;2022-07-19T01:01:25;20.30;99.90
67188;DHT22;54117;53.532;49.426;2022-07-19T01:06:58;20.30;99.90
67188;DHT22;54117;53.532;49.426;2022-07-19T01:09:25;20.20;99.90
67188;DHT22;54117;53.532;49.426;2022-07-19T01:12:17;20.30;99.90
67188;DHT22;54117;53.532;49.426;2022-07-19T01:14:45;20.30;99.90
67188;DHT22;54117;53.532;49.426;2022-07-19T01:17:11;20.40;99.90
67188;DHT22;54117;53.532;49.426;2022-07-19T01:19:38;20.40;99.90
67188;DHT22;54117;53.532;49.426;2022-07-19T01:22:04;20.40;99.90
67188;DHT22;54117;53.532;49.426;2022-07-19T01:24:31;20.50;99.90
67188;DHT22;54117;53.532;49.426;2022-07-19T01:26:57;20.50;99.90
67188;DHT22;54117;53.532;49.426;2022-07-19T01:29:24;20.40;99.90
67188;DHT22;54117;53.532;49.426;2022-07-19T01:31:51;20.30;99.90
67188;DHT22;54117;53.532;49.426;2022-07-19T01:34:17;20.30;99.90
67188;DHT22;54117;53.532;49.426;2022-07-19T01:36:44;20.10;99.90
67188;DHT22;54117;53.532;49.426;2022-07-19T01:39:10;20.10;99.90
67188;DHT22;54117;53.532;49.426;2022-07-19T01:41:37;20.00;99.90
67188;DHT22;54117;53.532;49.426;2022-07-19T01:44:03;20.00;99.90
67188;DHT22;54117;53.532;49.426;2022-07-19T01:46:30;20.00;99.90
67188;DHT22;54117;53.532;49.426;2022-07-19T01:48:56;20.00;99.90
67188;DHT22;54117;53.532;49.426;2022-07-19T01:51:23;20.00;99.90
67188;DHT22;54117;53.532;49.426;2022-07-19T01:53:49;20.10;99.90
67188;DHT22;54117;53.532;49.426;2022-07-19T01:56:16;20.20;99.90
67188;DHT22;54117;53.532;49.426;2022-07-19T01:58:42;20.20;99.90
67188;DHT22;54117;53.532;49.426;2022-07-19T02:01:13;20.30;99.90
67188;DHT22;54117;53.532;49.426;2022-07-19T02:03:39;20.30;99.90
67188;DHT22;54117;53.532;49.426;2022-07-19T02:06:10;20.40;99.90
67188;DHT22;54117;53.532;49.426;2022-07-19T02:08:37;20.50;99.90
67188;DHT22;54117;53.532;49.426;2022-07-19T02:11:04;20.70;99.90
67188;DHT22;54117;53.532;49.426;2022-07-19T02:14:15;20.60;99.90
67188;DHT22;54117;53.532;49.426;2022-07-19T02:16:45;20.40;99.90
67188;DHT22;54117;53.532;49.426;2022-07-19T02:19:33;20.30;99.90
67188;DHT22;54117;53.532;49.426;2022-07-19T02:22:00;20.30;99.90
67188;DHT22;54117;53.532;49.426;2022-07-19T02:24:26;20.20;99.90
67188;DHT22;54117;53.532;49.426;2022-07-19T02:26:53;20.20;99.90
67188;DHT22;54117;53.532;49.426;2022-07-19T02:29:19;20.20;99.90
67188;DHT22;54117;53.532;49.426;2022-07-19T02:31:46;20.20;99.90
67188;DHT22;54117;53.532;49.426;2022-07-19T02:34:13;20.20;99.90
67188;DHT22;54117;53.532;49.426;2022-07-19T02:36:40;20.30;99.90
67188;DHT22;54117;53.532;49.426;2022-07-19T02:39:06;20.30;99.90
67188;DHT22;54117;53.532;49.426;2022-07-19T02:41:33;20.30;99.90
67188;DHT22;54117;53.532;49.426;2022-07-19T02:43:59;20.30;99.90
67188;DHT22;54117;53.532;49.426;2022-07-19T02:46:26;20.50;99.90
67188;DHT22;54117;53.532;49.426;2022-07-19T02:48:52;21.30;99.90
67188;DHT22;54117;53.532;49.426;2022-07-19T02:51:19;22.60;99.90
67188;DHT22;54117;53.532;49.426;2022-07-19T02:53:45;24.10;99.90
67188;DHT22;54117;53.532;49.426;2022-07-19T02:56:12;25.50;96.40
67188;DHT22;54117;53.532;49.426;2022-07-19T02:58:38;26.20;93.50
67188;DHT22;54117;53.532;49.426;2022-07-19T03:01:05;26.90;91.00
67188;DHT22;54117;53.532;49.426;2022-07-19T03:03:31;27.60;88.00
67188;DHT22;54117;53.532;49.426;2022-07-19T03:06:11;28.30;78.70
67188;DHT22;54117;53.532;49.426;2022-07-19T03:08:38;29.00;78.70
67188;DHT22;54117;53.532;49.426;2022-07-19T03:11:04;29.60;74.00
67188;DHT22;54117;53.532;49.426;2022-07-19T03:13:31;30.30;70.90
67188;DHT22;54117;53.532;49.426;2022-07-19T03:15:57;31.00;63.10
67188;DHT22;54117;53.532;49.426;2022-07-19T03:18:24;30.90;60.60
67188;DHT22;54117;53.532;49.426;2022-07-19T03:20:50;30.30;61.20
67188;DHT22;54117;53.532;49.426;2022-07-19T03:23:17;29.70;58.90
67188;DHT22;54117;53.532;49.426;2022-07-19T03:25:43;29.20;62.30
67188;DHT22;54117;53.532;49.426;2022-07-19T03:28:10;29.40;61.70
67188;DHT22;54117;53.532;49.426;2022-07-19T03:30:36;29.70;59.40
67188;DHT22;54117;53.532;49.426;2022-07-19T03:33:03;29.60;58.80
67188;DHT22;54117;53.532;49.426;2022-07-19T03:35:29;29.20;58.90
67188;DHT22;54117;53.532;49.426;2022-07-19T03:37:56;29.40;60.60
67188;DHT22;54117;53.532;49.426;2022-07-19T03:40:23;29.80;58.60
67188;DHT22;54117;53.532;49.426;2022-07-19T03:42:49;29.50;56.40
67188;DHT22;54117;53.532;49.426;2022-07-19T03:45:16;28.50;58.10
67188;DHT22;54117;53.532;49.426;2022-07-19T03:47:42;28.30;60.30
67188;DHT22;54117;53.532;49.426;2022-07-19T03:50:09;28.80;59.80
67188;DHT22;54117;53.532;49.426;2022-07-19T03:52:35;29.90;57.30
67188;DHT22;54117;53.532;49.426;2022-07-19T03:55:02;30.50;53.90
67188;DHT22;54117;53.532;49.426;2022-07-19T03:57:29;30.60;52.80
67188;DHT22;54117;53.532;49.426;2022-07-19T03:59:55;30.40;52.00
67188;DHT22;54117;53.532;49.426;2022-07-19T04:02:22;30.10;53.90
67188;DHT22;54117;53.532;49.426;2022-07-19T04:04:48;29.40;52.40
67188;DHT22;54117;53.532;49.426;2022-07-19T04:07:15;28.30;54.00
67188;DHT22;54117;53.532;49.426;2022-07-19T04:09:41;27.40;57.00
67188;DHT22;54117;53.532;49.426;2022-07-19T04:12:08;27.70;57.00
67188;DHT22;54117;53.532;49.426;2022-07-19T04:14:34;28.80;56.00
67188;DHT22;54117;53.532;49.426;2022-07-19T04:17:00;30.00;53.30
67188;DHT22;54117;53.532;49.426;2022-07-19T04:19:31;30.30;49.70
67188;DHT22;54117;53.532;49.426;2022-07-19T04:21:57;30.00;50.20
67188;DHT22;54117;53.532;49.426;2022-07-19T04:24:24;29.50;51.60
67188;DHT22;54117;53.532;49.426;2022-07-19T04:26:50;29.30;52.00
67188;DHT22;54117;53.532;49.426;2022-07-19T04:29:17;29.30;50.90
67188;DHT22;54117;53.532;49.426;2022-07-19T04:31:43;28.80;51.60
67188;DHT22;54117;53.532;49.426;2022-07-19T04:34:10;27.80;53.60
67188;DHT22;54117;53.532;49.426;2022-07-19T04:36:37;27.00;55.10
67188;DHT22;54117;53.532;49.426;2022-07-19T04:39:03;26.60;56.80
67188;DHT22;54117;53.532;49.426;2022-07-19T04:41:30;26.90;58.70
67188;DHT22;54117;53.532;49.426;2022-07-19T04:43:56;27.40;56.50
67188;DHT22;54117;53.532;49.426;2022-07-19T04:46:23;27.30;55.70
67188;DHT22;54117;53.532;49.426;2022-07-19T04:48:50;27.00;55.50
67188;DHT22;54117;53.532;49.426;2022-07-19T04:51:16;26.50;57.10
67188;DHT22;54117;53.532;49.426;2022-07-19T04:53:43;26.40;57.50
67188;DHT22;54117;53.532;49.426;2022-07-19T04:56:09;25.90;57.70
67188;DHT22;54117;53.532;49.426;2022-07-19T04:58:35;25.30;58.60
67188;DHT22;54117;53.532;49.426;2022-07-19T05:01:02;25.00;60.00
67188;DHT22;54117;53.532;49.426;2022-07-19T05:03:28;24.70;61.20
67188;DHT22;54117;53.532;49.426;2022-07-19T05:05:55;24.50;61.50
67188;DHT22;54117;53.532;49.426;2022-07-19T05:08:21;24.20;62.20
67188;DHT22;54117;53.532;49.426;2022-07-19T05:10:49;23.90;62.20
67188;DHT22;54117;53.532;49.426;2022-07-19T05:13:21;23.70;63.20
67188;DHT22;54117;53.532;49.426;2022-07-19T05:15:47;23.60;66.00
67188;DHT22;54117;53.532;49.426;2022-07-19T05:18:13;23.70;64.20
67188;DHT22;54117;53.532;49.426;2022-07-19T05:20:40;23.60;63.60
67188;DHT22;54117;53.532;49.426;2022-07-19T05:23:06;23.40;63.40
67188;DHT22;54117;53.532;49.426;2022-07-19T05:25:33;23.20;65.10
67188;DHT22;54117;53.532;49.426;2022-07-19T05:28:03;23.00;65.10
67188;DHT22;54117;53.532;49.426;2022-07-19T05:30:30;22.80;66.00
67188;DHT22;54117;53.532;49.426;2022-07-19T05:33:00;22.80;67.50
67188;DHT22;54117;53.532;49.426;2022-07-19T05:35:26;23.00;67.80
67188;DHT22;54117;53.532;49.426;2022-07-19T05:49:34;23.90;66.70
67188;DHT22;54117;53.532;49.426;2022-07-19T05:52:00;24.40;65.60
67188;DHT22;54117;53.532;49.426;2022-07-19T05:54:27;24.90;63.30
67188;DHT22;54117;53.532;49.426;2022-07-19T05:56:56;25.50;61.80
67188;DHT22;54117;53.532;49.426;2022-07-19T05:59:48;26.60;60.30
67188;DHT22;54117;53.532;49.426;2022-07-19T06:02:14;27.90;58.40
67188;DHT22;54117;53.532;49.426;2022-07-19T07:01:50;34.20;40.50
67188;DHT22;54117;53.532;49.426;2022-07-19T07:07:26;34.00;39.30
67188;DHT22;54117;53.532;49.426;2022-07-19T07:10:21;33.70;40.30
67188;DHT22;54117;53.532;49.426;2022-07-19T07:13:04;33.10;40.00
67188;DHT22;54117;53.532;49.426;2022-07-19T07:15:34;32.90;40.60
67188;DHT22;54117;53.532;49.426;2022-07-19T08:25:44;27.40;49.80
67188;DHT22;54117;53.532;49.426;2022-07-19T08:28:10;27.00;50.00
67188;DHT22;54117;53.532;49.426;2022-07-19T08:30:36;27.00;50.90
67188;DHT22;54117;53.532;49.426;2022-07-19T08:33:03;26.90;50.70
67188;DHT22;54117;53.532;49.426;2022-07-19T08:35:33;26.80;50.90
67188;DHT22;54117;53.532;49.426;2022-07-19T08:37:59;26.80;51.50
67188;DHT22;54117;53.532;49.426;2022-07-19T08:40:26;26.80;51.80
67188;DHT22;54117;53.532;49.426;2022-07-19T08:42:53;26.70;52.50
67188;DHT22;54117;53.532;49.426;2022-07-19T10:38:08;27.10;47.30
67188;DHT22;54117;53.532;49.426;2022-07-19T10:43:18;27.00;47.20
67188;DHT22;54117;53.532;49.426;2022-07-19T10:48:42;26.60;47.30
67188;DHT22;54117;53.532;49.426;2022-07-19T10:51:26;26.50;48.50
67188;DHT22;54117;53.532;49.426;2022-07-19T10:54:06;26.70;48.40
67188;DHT22;54117;53.532;49.426;2022-07-19T10:56:38;26.90;47.90
67188;DHT22;54117;53.532;49.426;2022-07-19T10:59:11;27.10;47.30
67188;DHT22;54117;53.532;49.426;2022-07-19T11:01:53;27.30;47.10
67188;DHT22;54117;53.532;49.426;2022-07-19T11:07:08;27.40;45.60
67188;DHT22;54117;53.532;49.426;2022-07-19T11:09:58;27.30;45.90
67188;DHT22;54117;53.532;49.426;2022-07-19T11:12:34;27.10;46.40
67188;DHT22;54117;53.532;49.426;2022-07-19T11:15:04;27.00;45.90
67188;DHT22;54117;53.532;49.426;2022-07-19T11:17:38;27.00;46.90
67188;DHT22;54117;53.532;49.426;2022-07-19T11:20:13;27.00;46.60
67188;DHT22;54117;53.532;49.426;2022-07-19T11:22:45;27.00;46.70
67188;DHT22;54117;53.532;49.426;2022-07-19T11:25:15;27.00;46.50
67188;DHT22;54117;53.532;49.426;2022-07-19T11:27:44;26.90;46.40
67188;DHT22;54117;53.532;49.426;2022-07-19T11:30:13;26.90;47.40
67188;DHT22;54117;53.532;49.426;2022-07-19T11:32:40;26.90;47.50
67188;DHT22;54117;53.532;49.426;2022-07-19T11:35:12;26.90;46.70
67188;DHT22;54117;53.532;49.426;2022-07-19T11:37:41;27.10;46.00
67188;DHT22;54117;53.532;49.426;2022-07-19T11:40:10;27.20;46.40
67188;DHT22;54117;53.532;49.426;2022-07-19T11:42:42;27.30;46.60
67188;DHT22;54117;53.532;49.426;2022-07-19T11:45:17;27.40;46.20
67188;DHT22;54117;53.532;49.426;2022-07-19T11:47:46;27.40;45.80
67188;DHT22;54117;53.532;49.426;2022-07-19T11:50:15;27.30;45.20
67188;DHT22;54117;53.532;49.426;2022-07-19T11:52:52;27.20;45.10
67188;DHT22;54117;53.532;49.426;2022-07-19T11:58:28;26.90;45.90
67188;DHT22;54117;53.532;49.426;2022-07-19T12:03:59;26.60;47.70
67188;DHT22;54117;53.532;49.426;2022-07-19T12:06:38;26.50;47.40
67188;DHT22;54117;53.532;49.426;2022-07-19T12:21:19;26.60;47.20
67188;DHT22;54117;53.532;49.426;2022-07-19T12:33:04;26.30;46.50
67188;DHT22;54117;53.532;49.426;2022-07-19T12:35:44;26.20;46.50
67188;DHT22;54117;53.532;49.426;2022-07-19T12:38:11;26.20;46.70
67188;DHT22;54117;53.532;49.426;2022-07-19T12:40:41;26.20;46.60
67188;DHT22;54117;53.532;49.426;2022-07-19T12:43:09;26.20;46.70
67188;DHT22;54117;53.532;49.426;2022-07-19T12:45:39;26.10;47.00
67188;DHT22;54117;53.532;49.426;2022-07-19T12:48:08;26.00;47.10
67188;DHT22;54117;53.532;49.426;2022-07-19T12:50:39;25.90;47.40
67188;DHT22;54117;53.532;49.426;2022-07-19T12:53:09;25.90;47.00
67188;DHT22;54117;53.532;49.426;2022-07-19T12:55:37;25.90;47.00
67188;DHT22;54117;53.532;49.426;2022-07-19T12:58:05;25.90;47.20
67188;DHT22;54117;53.532;49.426;2022-07-19T13:00:33;25.90;47.40
67188;DHT22;54117;53.532;49.426;2022-07-19T13:03:00;25.80;47.10
67188;DHT22;54117;53.532;49.426;2022-07-19T13:05:28;25.80;47.40
67188;DHT22;54117;53.532;49.426;2022-07-19T13:07:55;25.70;47.40
67188;DHT22;54117;53.532;49.426;2022-07-19T13:10:21;25.70;48.00
67188;DHT22;54117;53.532;49.426;2022-07-19T13:12:48;25.60;47.50
67188;DHT22;54117;53.532;49.426;2022-07-19T13:15:14;25.60;48.50
67188;DHT22;54117;53.532;49.426;2022-07-19T13:17:41;25.60;48.00
67188;DHT22;54117;53.532;49.426;2022-07-19T13:20:08;25.80;47.90
67188;DHT22;54117;53.532;49.426;2022-07-19T13:22:38;26.00;47.40
67188;DHT22;54117;53.532;49.426;2022-07-19T13:25:06;26.20;46.90
67188;DHT22;54117;53.532;49.426;2022-07-19T13:27:32;26.20;46.90
67188;DHT22;54117;53.532;49.426;2022-07-19T13:29:59;26.20;46.90
67188;DHT22;54117;53.532;49.426;2022-07-19T13:32:25;26.10;46.50
67188;DHT22;54117;53.532;49.426;2022-07-19T13:34:51;26.10;46.30
67188;DHT22;54117;53.532;49.426;2022-07-19T13:37:18;26.00;46.50
67188;DHT22;54117;53.532;49.426;2022-07-19T13:39:44;26.00;46.70
67188;DHT22;54117;53.532;49.426;2022-07-19T13:42:11;26.00;46.70
67188;DHT22;54117;53.532;49.426;2022-07-19T13:44:37;26.00;47.10
67188;DHT22;54117;53.532;49.426;2022-07-19T13:47:03;25.80;47.60
67188;DHT22;54117;53.532;49.426;2022-07-19T13:49:29;25.70;47.60
67188;DHT22;54117;53.532;49.426;2022-07-19T13:51:56;25.70;48.00
67188;DHT22;54117;53.532;49.426;2022-07-19T13:54:22;25.70;48.20
67188;DHT22;54117;53.532;49.426;2022-07-19T13:56:48;25.80;48.60
67188;DHT22;54117;53.532;49.426;2022-07-19T13:59:14;25.70;48.40
67188;DHT22;54117;53.532;49.426;2022-07-19T14:01:41;25.70;48.10
67188;DHT22;54117;53.532;49.426;2022-07-19T14:04:07;25.60;48.20
67188;DHT22;54117;53.532;49.426;2022-07-19T14:06:34;25.60;48.40
67188;DHT22;54117;53.532;49.426;2022-07-19T14:09:00;25.40;48.80
67188;DHT22;54117;53.532;49.426;2022-07-19T14:11:26;25.30;49.10
67188;DHT22;54117;53.532;49.426;2022-07-19T14:13:52;25.10;49.30
67188;DHT22;54117;53.532;49.426;2022-07-19T14:16:19;25.00;49.30
67188;DHT22;54117;53.532;49.426;2022-07-19T14:18:45;25.00;49.70
67188;DHT22;54117;53.532;49.426;2022-07-19T14:21:11;25.00;49.80
67188;DHT22;54117;53.532;49.426;2022-07-19T14:23:39;25.10;50.30
67188;DHT22;54117;53.532;49.426;2022-07-19T14:26:05;25.10;50.30
67188;DHT22;54117;53.532;49.426;2022-07-19T14:28:31;25.10;50.00
67188;DHT22;54117;53.532;49.426;2022-07-19T14:30:58;25.10;49.70
67188;DHT22;54117;53.532;49.426;2022-07-19T14:33:24;25.00;49.80
67188;DHT22;54117;53.532;49.426;2022-07-19T14:35:52;24.90;49.40
67188;DHT22;54117;53.532;49.426;2022-07-19T14:38:18;24.90;50.20
67188;DHT22;54117;53.532;49.426;2022-07-19T14:40:44;24.90;50.50
67188;DHT22;54117;53.532;49.426;2022-07-19T14:43:11;24.90;50.20
67188;DHT22;54117;53.532;49.426;2022-07-19T14:45:37;24.80;50.40
67188;DHT22;54117;53.532;49.426;2022-07-19T14:48:04;24.80;50.40
67188;DHT22;54117;53.532;49.426;2022-07-19T14:50:30;24.70;50.90
67188;DHT22;54117;53.532;49.426;2022-07-19T14:52:57;24.70;50.90
67188;DHT22;54117;53.532;49.426;2022-07-19T14:55:23;24.60;51.10
67188;DHT22;54117;53.532;49.426;2022-07-19T14:57:49;24.60;52.00
67188;DHT22;54117;53.532;49.426;2022-07-19T15:00:16;24.60;51.20
67188;DHT22;54117;53.532;49.426;2022-07-19T15:02:42;24.50;51.40
67188;DHT22;54117;53.532;49.426;2022-07-19T15:05:08;24.50;51.90
67188;DHT22;54117;53.532;49.426;2022-07-19T15:07:35;24.40;52.50
67188;DHT22;54117;53.532;49.426;2022-07-19T15:10:02;24.30;52.40
67188;DHT22;54117;53.532;49.426;2022-07-19T15:12:28;24.30;52.90
67188;DHT22;54117;53.532;49.426;2022-07-19T15:14:55;24.30;53.20
67188;DHT22;54117;53.532;49.426;2022-07-19T15:17:21;24.20;53.60
67188;DHT22;54117;53.532;49.426;2022-07-19T15:19:47;24.10;54.10
67188;DHT22;54117;53.532;49.426;2022-07-19T15:22:14;24.00;54.30
67188;DHT22;54117;53.532;49.426;2022-07-19T15:24:40;24.00;54.70
67188;DHT22;54117;53.532;49.426;2022-07-19T15:27:06;23.90;54.90
67188;DHT22;54117;53.532;49.426;2022-07-19T15:29:33;23.90;55.10
67188;DHT22;54117;53.532;49.426;2022-07-19T15:31:59;23.90;54.60
67188;DHT22;54117;53.532;49.426;2022-07-19T15:34:25;23.80;54.50
67188;DHT22;54117;53.532;49.426;2022-07-19T15:36:51;23.90;55.20
67188;DHT22;54117;53.532;49.426;2022-07-19T15:39:18;24.10;54.70
67188;DHT22;54117;53.532;49.426;2022-07-19T15:41:44;24.20;54.10
67188;DHT22;54117;53.532;49.426;2022-07-19T15:44:10;24.20;53.80
67188;DHT22;54117;53.532;49.426;2022-07-19T15:46:37;24.10;53.70
67188;DHT22;54117;53.532;49.426;2022-07-19T15:49:04;24.00;54.40
67188;DHT22;54117;53.532;49.426;2022-07-19T15:51:32;23.90;55.10
67188;DHT22;54117;53.532;49.426;2022-07-19T15:53:59;23.70;55.20
67188;DHT22;54117;53.532;49.426;2022-07-19T15:56:25;23.70;55.60
67188;DHT22;54117;53.532;49.426;2022-07-19T15:58:52;23.60;56.00
67188;DHT22;54117;53.532;49.426;2022-07-19T16:01:19;23.50;56.60
67188;DHT22;54117;53.532;49.426;2022-07-19T16:03:46;23.40;56.70
67188;DHT22;54117;53.532;49.426;2022-07-19T16:06:12;23.30;56.80
67188;DHT22;54117;53.532;49.426;2022-07-19T16:08:38;23.20;57.30
67188;DHT22;54117;53.532;49.426;2022-07-19T16:11:05;23.10;57.80
67188;DHT22;54117;53.532;49.426;2022-07-19T16:13:31;23.00;58.00
67188;DHT22;54117;53.532;49.426;2022-07-19T16:15:58;23.00;58.30
67188;DHT22;54117;53.532;49.426;2022-07-19T16:18:25;22.80;58.70
67188;DHT22;54117;53.532;49.426;2022-07-19T16:20:51;22.80;59.30
67188;DHT22;54117;53.532;49.426;2022-07-19T16:23:18;22.70;59.60
67188;DHT22;54117;53.532;49.426;2022-07-19T16:25:45;22.60;59.60
67188;DHT22;54117;53.532;49.426;2022-07-19T16:28:11;22.50;59.90
67188;DHT22;54117;53.532;49.426;2022-07-19T16:30:37;22.50;60.70
67188;DHT22;54117;53.532;49.426;2022-07-19T16:33:04;22.40;60.60
67188;DHT22;54117;53.532;49.426;2022-07-19T16:44:33;22.10;61.10
67188;DHT22;54117;53.532;49.426;2022-07-19T16:47:03;22.00;61.60
67188;DHT22;54117;53.532;49.426;2022-07-19T16:49:29;21.90;61.90
67188;DHT22;54117;53.532;49.426;2022-07-19T16:51:57;21.80;62.10
67188;DHT22;54117;53.532;49.426;2022-07-19T16:54:23;21.70;62.50
67188;DHT22;54117;53.532;49.426;2022-07-19T16:56:50;21.60;62.30
67188;DHT22;54117;53.532;49.426;2022-07-19T16:59:16;21.60;62.60
67188;DHT22;54117;53.532;49.426;2022-07-19T17:01:42;21.50;62.80
67188;DHT22;54117;53.532;49.426;2022-07-19T17:04:09;21.40;62.70
67188;DHT22;54117;53.532;49.426;2022-07-19T17:06:35;21.30;63.40
67188;DHT22;54117;53.532;49.426;2022-07-19T17:09:02;21.30;63.30
67188;DHT22;54117;53.532;49.426;2022-07-19T17:11:32;21.30;64.10
67188;DHT22;54117;53.532;49.426;2022-07-19T17:13:59;21.20;64.10
67188;DHT22;54117;53.532;49.426;2022-07-19T17:16:26;21.20;64.30
67188;DHT22;54117;53.532;49.426;2022-07-19T17:18:53;21.10;64.00
67188;DHT22;54117;53.532;49.426;2022-07-19T17:21:19;21.10;64.00
67188;DHT22;54117;53.532;49.426;2022-07-19T17:23:45;21.10;64.30
67188;DHT22;54117;53.532;49.426;2022-07-19T17:26:14;21.10;64.20
67188;DHT22;54117;53.532;49.426;2022-07-19T17:28:42;21.10;63.90
67188;DHT22;54117;53.532;49.426;2022-07-19T17:31:09;21.10;63.50
67188;DHT22;54117;53.532;49.426;2022-07-19T17:33:35;21.10;63.20
67188;DHT22;54117;53.532;49.426;2022-07-19T17:36:01;21.10;63.20
67188;DHT22;54117;53.532;49.426;2022-07-19T17:38:28;21.10;62.90
67188;DHT22;54117;53.532;49.426;2022-07-19T17:40:54;21.00;62.90
67188;DHT22;54117;53.532;49.426;2022-07-19T17:43:21;21.00;62.70
67188;DHT22;54117;53.532;49.426;2022-07-19T17:45:48;21.00;62.50
67188;DHT22;54117;53.532;49.426;2022-07-19T17:48:14;21.10;62.20
67188;DHT22;54117;53.532;49.426;2022-07-19T17:50:40;21.00;62.40
67188;DHT22;54117;53.532;49.426;2022-07-19T17:53:07;21.00;62.40
67188;DHT22;54117;53.532;49.426;2022-07-19T17:55:33;21.00;62.90
67188;DHT22;54117;53.532;49.426;2022-07-19T17:58:06;20.90;62.90
67188;DHT22;54117;53.532;49.426;2022-07-19T18:00:32;20.80;63.20
67188;DHT22;54117;53.532;49.426;2022-07-19T18:02:59;20.70;63.00
67188;DHT22;54117;53.532;49.426;2022-07-19T18:05:26;20.70;63.70
67188;DHT22;54117;53.532;49.426;2022-07-19T18:07:59;20.70;64.10
67188;DHT22;54117;53.532;49.426;2022-07-19T18:19:20;20.40;65.50
67188;DHT22;54117;53.532;49.426;2022-07-19T21:39:47;18.80;74.80
67188;DHT22;54117;53.532;49.426;2022-07-19T21:42:14;18.90;75.00
67188;DHT22;54117;53.532;49.426;2022-07-19T21:44:41;18.90;74.40
67188;DHT22;54117;53.532;49.426;2022-07-19T21:47:07;19.00;73.70
67188;DHT22;54117;53.532;49.426;2022-07-19T21:49:36;19.00;73.80
67188;DHT22;54117;53.532;49.426;2022-07-19T21:52:03;19.00;74.10
67188;DHT22;54117;53.532;49.426;2022-07-19T21:54:29;19.00;74.10
67188;DHT22;54117;53.532;49.426;2022-07-19T21:56:56;19.10;74.00
67188;DHT22;54117;53.532;49.426;2022-07-19T21:59:23;19.10;73.90
67188;DHT22;54117;53.532;49.426;2022-07-19T22:01:49;19.10;73.90
67188;DHT22;54117;53.532;49.426;2022-07-19T22:04:16;19.10;74.20
67188;DHT22;54117;53.532;49.426;2022-07-19T22:06:42;19.10;74.10
67188;DHT22;54117;53.532;49.426;2022-07-19T22:09:09;19.20;74.30
67188;DHT22;54117;53.532;49.426;2022-07-19T22:11:38;19.20;73.90
67188;DHT22;54117;53.532;49.426;2022-07-19T22:19:52;19.20;74.10
67188;DHT22;54117;53.532;49.426;2022-07-19T22:22:19;19.20;73.80
67188;DHT22;54117;53.532;49.426;2022-07-19T22:24:45;19.20;74.70
67188;DHT22;54117;53.532;49.426;2022-07-19T22:27:12;19.00;74.70
67188;DHT22;54117;53.532;49.426;2022-07-19T22:29:38;19.00;74.70
67188;DHT22;54117;53.532;49.426;2022-07-19T22:32:05;19.00;75.10
67188;DHT22;54117;53.532;49.426;2022-07-19T22:34:32;18.90;75.20
67188;DHT22;54117;53.532;49.426;2022-07-19T22:36:59;19.00;75.30
67188;DHT22;54117;53.532;49.426;2022-07-19T22:39:25;19.00;75.60
67188;DHT22;54117;53.532;49.426;2022-07-19T22:41:52;19.00;75.30
67188;DHT22;54117;53.532;49.426;2022-07-19T22:44:18;19.00;75.30
67188;DHT22;54117;53.532;49.426;2022-07-19T22:46:45;19.00;75.20
67188;DHT22;54117;53.532;49.426;2022-07-19T22:49:11;19.00;74.80
67188;DHT22;54117;53.532;49.426;2022-07-19T22:51:38;18.90;74.80
67188;DHT22;54117;53.532;49.426;2022-07-19T22:54:04;18.90;75.20
67188;DHT22;54117;53.532;49.426;2022-07-19T22:56:31;18.70;75.50
67188;DHT22;54117;53.532;49.426;2022-07-19T22:58:57;18.70;75.80
67188;DHT22;54117;53.532;49.426;2022-07-19T23:01:24;18.60;76.10
67188;DHT22;54117;53.532;49.426;2022-07-19T23:03:50;18.50;76.60
67188;DHT22;54117;53.532;49.426;2022-07-19T23:06:17;18.40;77.10
67188;DHT22;54117;53.532;49.426;2022-07-19T23:08:43;18.30;77.60
67188;DHT22;54117;53.532;49.426;2022-07-19T23:11:10;18.20;78.40
67188;DHT22;54117;53.532;49.426;2022-07-19T23:13:36;18.10;79.20
67188;DHT22;54117;53.532;49.426;2022-07-19T23:16:04;18.00;79.60
67188;DHT22;54117;53.532;49.426;2022-07-19T23:18:57;18.00;80.40
67188;DHT22;54117;53.532;49.426;2022-07-19T23:33:59;17.70;82.10
67188;DHT22;54117;53.532;49.426;2022-07-19T23:36:26;17.60;82.50
67188;DHT22;54117;53.532;49.426;2022-07-19T23:38:52;17.70;82.90
67188;DHT22;54117;53.532;49.426;2022-07-19T23:41:19;17.60;83.20
67188;DHT22;54117;53.532;49.426;2022-07-19T23:44:13;17.70;83.10
